createdAt,value
2018-08-28T00:02:21.986Z,100956.11
2018-08-28T00:04:51.474Z,100958.02
2018-08-28T00:07:19.849Z,100965.23
2018-08-28T00:09:49.132Z,100964.84
2018-08-28T00:12:17.460Z,100966.00
2018-08-28T00:14:46.332Z,100966.08
2018-08-28T00:17:15.818Z,100976.53
2018-08-28T00:19:44.809Z,100972.68
2018-08-28T00:22:13.932Z,100977.13
2018-08-28T00:24:42.366Z,100983.81
2018-08-28T00:27:10.868Z,100985.18
2018-08-28T00:29:39.217Z,100988.98
2018-08-28T00:32:08.577Z,100988.27
2018-08-28T00:34:37.006Z,100994.27
2018-08-28T00:37:05.346Z,100997.19
2018-08-28T00:39:33.720Z,100996.11
2018-08-28T00:42:02.174Z,100996.19
2018-08-28T00:44:30.604Z,100991.74
2018-08-28T00:46:59.937Z,101000.35
2018-08-28T00:49:28.281Z,101001.39
2018-08-28T00:51:56.668Z,101004.52
2018-08-28T00:54:25.146Z,101017.84
2018-08-28T00:56:53.500Z,101021.05
2018-08-28T00:59:22.641Z,101015.52
2018-08-28T01:01:51.745Z,101019.66
2018-08-28T01:04:20.188Z,101025.22
2018-08-28T01:06:49.129Z,101028.18
2018-08-28T01:09:17.546Z,101025.33
2018-08-28T01:11:46.465Z,101032.94
2018-08-28T01:14:15.897Z,101028.94
2018-08-28T01:16:44.944Z,101031.88
2018-08-28T01:19:14.445Z,101035.41
2018-08-28T01:21:42.869Z,101037.22
2018-08-28T01:24:11.297Z,101048.32
2018-08-28T01:26:39.677Z,101053.27
2018-08-28T01:29:07.996Z,101052.08
2018-08-28T01:31:36.326Z,101056.55
2018-08-28T01:34:04.662Z,101051.39
2018-08-28T01:36:33.001Z,101053.91
2018-08-28T01:39:01.401Z,101055.83
2018-08-28T01:41:30.726Z,101062.39
2018-08-28T01:43:59.131Z,101063.64
2018-08-28T01:46:27.538Z,101065.59
2018-08-28T01:48:55.874Z,101065.45
2018-08-28T01:51:25.093Z,101066.97
2018-08-28T01:53:53.473Z,101071.89
2018-08-28T01:56:22.717Z,101066.23
2018-08-28T01:58:52.940Z,101072.27
2018-08-28T02:01:21.762Z,101073.44
2018-08-28T02:03:50.727Z,101077.13
2018-08-28T02:06:19.057Z,101076.97
2018-08-28T02:08:47.496Z,101080.05
2018-08-28T02:11:16.464Z,101084.26
2018-08-28T02:13:46.874Z,101079.25
2018-08-28T02:16:17.075Z,101080.30
2018-08-28T02:18:46.368Z,101083.42
2018-08-28T02:21:16.113Z,101074.70
2018-08-28T02:23:46.393Z,101084.48
2018-08-28T02:26:17.333Z,101078.78
2018-08-28T02:28:47.797Z,101083.02
2018-08-28T02:31:16.941Z,101090.40
2018-08-28T02:33:46.367Z,101093.31
2018-08-28T02:36:15.804Z,101091.98
2018-08-28T02:38:46.152Z,101090.81
2018-08-28T02:41:15.847Z,101096.78
2018-08-28T02:43:45.841Z,101092.20
2018-08-28T02:46:15.201Z,101091.02
2018-08-28T02:48:45.726Z,101091.50
2018-08-28T02:51:16.053Z,101087.75
2018-08-28T02:53:45.900Z,101084.30
2018-08-28T02:56:15.922Z,101089.28
2018-08-28T02:58:46.097Z,101088.09
2018-08-28T03:01:16.480Z,101093.78
2018-08-28T03:03:46.687Z,101094.95
2018-08-28T03:06:15.909Z,101097.38
2018-08-28T03:08:46.176Z,101102.88
2018-08-28T03:11:16.156Z,101104.78
2018-08-28T03:13:46.416Z,101103.69
2018-08-28T03:16:17.233Z,101103.58
2018-08-28T03:18:46.347Z,101107.82
2018-08-28T03:21:16.112Z,101107.13
2018-08-28T03:23:46.513Z,101118.10
2018-08-28T03:26:17.306Z,101126.27
2018-08-28T03:28:46.720Z,101129.71
2018-08-28T03:31:16.273Z,101132.94
2018-08-28T03:33:46.437Z,101134.25
2018-08-28T03:36:17.224Z,101143.48
2018-08-28T03:38:46.586Z,101150.66
2018-08-28T03:41:17.337Z,101152.50
2018-08-28T03:43:47.441Z,101151.32
2018-08-28T03:46:17.407Z,101157.62
2018-08-28T03:48:46.825Z,101162.34
2018-08-28T03:51:16.069Z,101162.28
2018-08-28T03:53:46.250Z,101161.87
2018-08-28T03:56:17.060Z,101165.94
2018-08-28T03:58:46.420Z,101166.95
2018-08-28T04:01:16.241Z,101171.52
2018-08-28T04:03:45.806Z,101169.67
2018-08-28T04:06:15.389Z,101167.04
2018-08-28T04:08:45.813Z,101182.41
2018-08-28T04:11:15.290Z,101191.30
2018-08-28T04:13:44.301Z,101190.28
2018-08-28T04:16:13.222Z,101193.65
2018-08-28T04:18:41.545Z,101193.93
2018-08-28T04:21:10.021Z,101198.22
2018-08-28T04:23:38.356Z,101198.59
2018-08-28T04:26:06.682Z,101197.72
2018-08-28T04:28:35.041Z,101198.53
2018-08-28T04:31:03.410Z,101201.86
2018-08-28T04:33:31.732Z,101193.48
2018-08-28T04:36:00.145Z,101196.30
2018-08-28T04:38:28.560Z,101202.47
2018-08-28T04:40:56.965Z,101204.72
2018-08-28T04:43:25.381Z,101204.25
2018-08-28T04:45:53.781Z,101203.63
2018-08-28T04:48:23.111Z,101200.30
2018-08-28T04:50:51.829Z,101201.00
2018-08-28T04:53:20.785Z,101200.23
2018-08-28T04:55:49.148Z,101202.77
2018-08-28T04:58:17.482Z,101205.25
2018-08-28T05:00:45.867Z,101212.02
2018-08-28T05:03:14.722Z,101215.80
2018-08-28T05:05:43.296Z,101228.06
2018-08-28T05:08:11.617Z,101226.69
2018-08-28T05:10:40.025Z,101236.11
2018-08-28T05:13:08.453Z,101231.20
2018-08-28T05:15:37.694Z,101228.66
2018-08-28T05:18:06.064Z,101225.31
2018-08-28T05:20:34.414Z,101224.30
2018-08-28T05:23:02.736Z,101237.44
2018-08-28T05:25:31.064Z,101241.22
2018-08-28T05:28:01.292Z,101235.78
2018-08-28T05:30:30.763Z,101242.45
2018-08-28T05:32:59.917Z,101245.17
2018-08-28T05:35:35.172Z,101243.06
2018-08-28T05:38:04.562Z,101251.98
2018-08-28T05:40:33.921Z,101247.41
2018-08-28T05:43:03.261Z,101245.13
2018-08-28T05:45:32.589Z,101250.31
2018-08-28T05:48:01.974Z,101248.29
2018-08-28T05:50:31.226Z,101255.59
2018-08-28T05:53:00.569Z,101254.97
2018-08-28T05:55:29.958Z,101259.70
2018-08-28T05:57:59.349Z,101260.68
2018-08-28T06:00:28.612Z,101260.28
2018-08-28T06:02:58.029Z,101267.39
2018-08-28T06:05:27.425Z,101265.81
2018-08-28T06:07:57.469Z,101267.50
2018-08-28T06:10:26.681Z,101269.95
2018-08-28T06:12:56.089Z,101275.93
2018-08-28T06:15:25.418Z,101268.88
2018-08-28T06:17:54.801Z,101273.38
2018-08-28T06:20:24.022Z,101279.74
2018-08-28T06:22:54.799Z,101280.44
2018-08-28T06:25:24.197Z,101283.48
2018-08-28T06:27:53.146Z,101278.69
2018-08-28T06:30:21.934Z,101283.75
2018-08-28T06:32:50.842Z,101282.70
2018-08-28T06:35:19.243Z,101278.25
2018-08-28T06:37:47.586Z,101287.30
2018-08-28T06:40:15.918Z,101284.52
2018-08-28T06:42:45.310Z,101286.75
2018-08-28T06:45:15.324Z,101282.99
2018-08-28T06:47:45.297Z,101288.13
2018-08-28T06:50:14.441Z,101290.50
2018-08-28T06:52:43.759Z,101289.79
2018-08-28T06:55:12.110Z,101298.50
2018-08-28T06:57:40.789Z,101290.20
2018-08-28T07:00:09.246Z,101293.39
2018-08-28T07:02:37.986Z,101303.70
2018-08-28T07:05:06.492Z,101299.38
2018-08-28T07:07:34.889Z,101297.35
2018-08-28T07:10:03.271Z,101303.11
2018-08-28T07:12:31.581Z,101306.50
2018-08-28T07:14:59.916Z,101313.25
2018-08-28T07:17:28.904Z,101313.93
2018-08-28T07:19:57.235Z,101313.14
2018-08-28T07:22:26.484Z,101320.01
2018-08-28T07:24:54.856Z,101325.23
2018-08-28T07:27:23.205Z,101320.42
2018-08-28T07:29:51.981Z,101323.91
2018-08-28T07:32:20.457Z,101321.08
2018-08-28T07:34:48.803Z,101315.34
2018-08-28T07:37:17.172Z,101323.61
2018-08-28T07:39:46.321Z,101315.23
2018-08-28T07:42:15.217Z,101325.66
2018-08-28T07:44:44.253Z,101329.40
2018-08-28T07:47:14.336Z,101338.74
2018-08-28T07:49:43.388Z,101332.89
2018-08-28T07:52:11.721Z,101329.13
2018-08-28T07:54:40.173Z,101335.61
2018-08-28T07:57:08.587Z,101340.05
2018-08-28T07:59:37.008Z,101337.22
2018-08-28T08:02:05.347Z,101342.95
2018-08-28T08:04:33.969Z,101346.05
2018-08-28T08:07:02.309Z,101336.73
2018-08-28T08:09:30.721Z,101339.13
2018-08-28T08:11:59.129Z,101342.81
2018-08-28T08:14:27.687Z,101344.31
2018-08-28T08:16:56.123Z,101346.72
2018-08-28T08:19:24.461Z,101345.70
2018-08-28T08:21:54.184Z,101353.84
2018-08-28T08:24:23.401Z,101352.44
2018-08-28T08:26:52.404Z,101353.98
2018-08-28T08:29:21.434Z,101352.11
2018-08-28T08:31:49.776Z,101348.16
2018-08-28T08:34:18.091Z,101361.66
2018-08-28T08:36:46.427Z,101361.55
2018-08-28T08:39:15.883Z,101359.19
2018-08-28T08:41:45.388Z,101358.94
2018-08-28T08:44:14.774Z,101364.73
2018-08-28T08:46:44.193Z,101361.69
2018-08-28T08:49:13.235Z,101360.36
2018-08-28T08:51:41.549Z,101365.05
2018-08-28T08:54:09.864Z,101372.05
2018-08-28T08:56:38.457Z,101374.16
2018-08-28T08:59:06.782Z,101369.98
2018-08-28T09:01:35.109Z,101370.64
2018-08-28T09:04:04.504Z,101370.53
2018-08-28T09:06:32.834Z,101369.16
2018-08-28T09:09:02.169Z,101376.06
2018-08-28T09:11:31.445Z,101370.95
2018-08-28T09:14:00.784Z,101366.00
2018-08-28T09:16:29.097Z,101365.56
2018-08-28T09:18:57.419Z,101367.55
2018-08-28T09:21:25.789Z,101366.60
2018-08-28T09:23:55.029Z,101365.59
2018-08-28T09:26:24.273Z,101369.42
2018-08-28T09:28:55.101Z,101367.23
2018-08-28T09:31:25.381Z,101368.25
2018-08-28T09:33:54.573Z,101376.56
2018-08-28T09:36:24.881Z,101370.39
2018-08-28T09:38:54.253Z,101372.56
2018-08-28T09:41:24.954Z,101372.58
2018-08-28T09:43:54.352Z,101375.91
2018-08-28T09:46:23.613Z,101373.91
2018-08-28T09:48:53.885Z,101373.92
2018-08-28T09:51:24.201Z,101372.76
2018-08-28T09:53:54.881Z,101376.73
2018-08-28T09:56:24.146Z,101373.75
2018-08-28T09:58:54.954Z,101363.43
2018-08-28T10:01:29.701Z,101368.23
2018-08-28T10:03:58.046Z,101368.91
2018-08-28T10:06:27.384Z,101373.59
2018-08-28T10:08:56.585Z,101365.56
2018-08-28T10:11:25.917Z,101373.18
2018-08-28T10:13:54.265Z,101365.52
2018-08-28T10:16:25.045Z,101370.23
2018-08-28T10:18:54.089Z,101374.36
2018-08-28T10:21:23.433Z,101374.27
2018-08-28T10:23:52.834Z,101373.21
2018-08-28T10:26:23.036Z,101369.66
2018-08-28T10:28:52.110Z,101372.25
2018-08-28T10:31:21.985Z,101370.01
2018-08-28T10:33:52.093Z,101377.51
2018-08-28T10:36:22.377Z,101373.20
2018-08-28T10:38:52.251Z,101377.85
2018-08-28T10:41:21.788Z,101378.98
2018-08-28T10:43:52.047Z,101379.50
2018-08-28T10:46:22.708Z,101375.95
2018-08-28T10:48:53.092Z,101378.09
2018-08-28T10:51:23.436Z,101375.20
2018-08-28T10:53:53.630Z,101382.73
2018-08-28T10:56:23.989Z,101384.84
2018-08-28T10:58:53.358Z,101384.16
2018-08-28T11:01:23.309Z,101389.53
2018-08-28T11:03:53.825Z,101389.06
2018-08-28T11:06:24.141Z,101386.69
2018-08-28T11:08:53.359Z,101387.38
2018-08-28T11:11:23.748Z,101390.45
2018-08-28T11:13:54.132Z,101388.59
2018-08-28T11:16:25.014Z,101386.72
2018-08-28T11:18:54.424Z,101386.14
2018-08-28T11:21:23.877Z,101383.38
2018-08-28T11:23:54.097Z,101379.58
2018-08-28T11:26:24.336Z,101380.39
2018-08-28T11:28:54.113Z,101392.13
2018-08-28T11:31:23.595Z,101386.55
2018-08-28T11:33:52.969Z,101381.36
2018-08-28T11:36:22.632Z,101382.85
2018-08-28T11:38:52.213Z,101386.07
2018-08-28T11:41:20.614Z,101381.14
2018-08-28T11:43:49.813Z,101385.14
2018-08-28T11:46:18.134Z,101392.72
2018-08-28T11:48:46.473Z,101387.70
2018-08-28T11:51:15.784Z,101391.41
2018-08-28T11:53:44.921Z,101387.56
2018-08-28T11:56:14.250Z,101391.77
2018-08-28T11:58:43.306Z,101392.08
2018-08-28T12:01:11.663Z,101386.34
2018-08-28T12:03:39.984Z,101400.08
2018-08-28T12:06:08.308Z,101391.69
2018-08-28T12:08:36.709Z,101389.16
2018-08-28T12:11:05.040Z,101388.45
2018-08-28T12:13:33.438Z,101392.16
2018-08-28T12:16:02.625Z,101386.88
2018-08-28T12:18:30.956Z,101389.95
2018-08-28T12:20:59.384Z,101385.95
2018-08-28T12:23:27.711Z,101380.03
2018-08-28T12:25:56.048Z,101390.25
2018-08-28T12:28:24.395Z,101387.19
2018-08-28T12:30:53.657Z,101391.33
2018-08-28T12:33:22.827Z,101380.84
2018-08-28T12:35:52.178Z,101375.23
2018-08-28T12:38:22.210Z,101379.49
2018-08-28T12:40:52.249Z,101369.69
2018-08-28T12:43:22.296Z,101376.23
2018-08-28T12:45:52.153Z,101383.67
2018-08-28T12:48:21.155Z,101382.52
2018-08-28T12:50:50.352Z,101386.66
2018-08-28T12:53:21.045Z,101382.18
2018-08-28T12:55:51.079Z,101391.02
2018-08-28T12:58:19.445Z,101394.48
2018-08-28T13:00:47.818Z,101375.39
2018-08-28T13:03:16.315Z,101373.20
2018-08-28T13:05:45.345Z,101370.70
2018-08-28T13:08:14.565Z,101372.75
2018-08-28T13:10:43.010Z,101369.94
2018-08-28T13:13:11.353Z,101375.50
2018-08-28T13:15:39.959Z,101373.39
2018-08-28T13:18:08.287Z,101374.86
2018-08-28T13:20:36.641Z,101362.83
2018-08-28T13:23:04.996Z,101373.16
2018-08-28T13:25:33.654Z,101367.77
2018-08-28T13:28:01.763Z,101365.69
2018-08-28T13:30:30.095Z,101365.89
2018-08-28T13:32:59.518Z,101356.93
2018-08-28T13:35:27.841Z,101367.81
2018-08-28T13:37:56.501Z,101366.98
2018-08-28T13:40:24.968Z,101366.83
2018-08-28T13:42:54.029Z,101362.87
2018-08-28T13:45:23.213Z,101364.97
2018-08-28T13:47:52.242Z,101366.65
2018-08-28T13:50:21.446Z,101367.53
2018-08-28T13:52:49.768Z,101360.25
2018-08-28T13:55:18.121Z,101363.12
2018-08-28T13:57:46.509Z,101359.51
2018-08-28T14:00:15.782Z,101360.41
2018-08-28T14:02:44.873Z,101358.13
2018-08-28T14:05:14.282Z,101358.84
2018-08-28T14:07:44.333Z,101361.25
2018-08-28T14:10:14.082Z,101354.63
2018-08-28T14:12:44.258Z,101363.96
2018-08-28T14:15:14.276Z,101355.50
2018-08-28T14:17:42.968Z,101350.56
2018-08-28T14:20:11.341Z,101356.53
2018-08-28T14:22:39.884Z,101363.61
2018-08-28T14:25:08.312Z,101356.00
2018-08-28T14:27:37.745Z,101358.94
2018-08-28T14:30:06.589Z,101364.33
2018-08-28T14:32:34.924Z,101372.95
2018-08-28T14:35:03.272Z,101365.92
2018-08-28T14:37:31.689Z,101365.14
2018-08-28T14:40:00.254Z,101364.02
2018-08-28T14:42:28.651Z,101363.64
2018-08-28T14:44:57.280Z,101360.97
2018-08-28T14:47:25.793Z,101358.56
2018-08-28T14:49:54.177Z,101360.54
2018-08-28T14:52:23.467Z,101351.19
2018-08-28T14:54:52.288Z,101357.98
2018-08-28T14:57:21.222Z,101353.87
2018-08-28T14:59:49.605Z,101353.53
2018-08-28T15:02:18.814Z,101350.33
2018-08-28T15:04:47.253Z,101349.58
2018-08-28T15:07:16.201Z,101355.77
2018-08-28T15:09:45.270Z,101354.08
2018-08-28T15:12:17.939Z,101342.28
2018-08-28T15:14:47.791Z,101352.73
2018-08-28T15:17:19.174Z,101353.92
2018-08-28T15:19:48.691Z,101350.52
2018-08-28T15:22:17.213Z,101347.27
2018-08-28T15:24:47.444Z,101351.42
2018-08-28T15:27:20.470Z,101353.75
2018-08-28T15:29:50.016Z,101347.73
2018-08-28T15:32:22.435Z,101348.87
2018-08-28T15:34:52.250Z,101352.77
2018-08-28T15:37:21.365Z,101350.68
2018-08-28T15:39:51.176Z,101353.27
2018-08-28T15:42:20.225Z,101351.80
2018-08-28T15:44:48.844Z,101353.48
2018-08-28T15:47:21.936Z,101353.48
2018-08-28T15:49:52.530Z,101351.74
2018-08-28T15:52:21.416Z,101356.16
2018-08-28T15:54:51.471Z,101352.81
2018-08-28T15:57:21.325Z,101350.89
2018-08-28T15:59:50.274Z,101350.33
2018-08-28T16:02:18.848Z,101357.05
2018-08-28T16:04:48.905Z,101356.70
2018-08-28T16:07:18.056Z,101357.80
2018-08-28T16:09:46.735Z,101356.75
2018-08-28T16:12:18.257Z,101364.50
2018-08-28T16:14:49.129Z,101360.85
2018-08-28T16:17:20.057Z,101365.36
2018-08-28T16:19:52.769Z,101364.19
2018-08-28T16:22:33.244Z,101370.72
2018-08-28T16:25:03.778Z,101363.94
2018-08-28T16:27:34.868Z,101367.22
2018-08-28T16:30:05.914Z,101367.92
2018-08-28T16:32:39.787Z,101363.75
2018-08-28T16:35:11.774Z,101364.59
2018-08-28T16:37:43.368Z,101361.58
2018-08-28T16:40:17.403Z,101364.92
2018-08-28T16:42:51.964Z,101357.42
2018-08-28T16:45:25.250Z,101357.94
2018-08-28T16:47:54.587Z,101356.23
2018-08-28T16:50:24.816Z,101359.88
2018-08-28T16:52:55.507Z,101356.39
2018-08-28T16:55:25.235Z,101350.23
2018-08-28T16:58:01.315Z,101346.22
2018-08-28T17:00:34.039Z,101353.22
2018-08-28T17:03:05.937Z,101349.20
2018-08-28T17:05:38.153Z,101362.18
2018-08-28T17:08:10.734Z,101360.53
2018-08-28T17:10:41.178Z,101363.83
2018-08-28T17:13:18.201Z,101367.78
2018-08-28T17:15:48.338Z,101363.25
2018-08-28T17:18:18.324Z,101362.48
2018-08-28T17:20:54.087Z,101361.61
2018-08-28T17:23:28.362Z,101353.86
2018-08-28T17:26:02.215Z,101360.22
2018-08-28T17:28:38.745Z,101358.84
2018-08-28T17:31:10.715Z,101359.28
2018-08-28T17:33:43.866Z,101353.34
2018-08-28T17:36:15.940Z,101362.13
2018-08-28T17:38:53.341Z,101361.00
2018-08-28T17:41:25.501Z,101370.79
2018-08-28T17:43:59.059Z,101366.73
2018-08-28T17:46:30.855Z,101370.97
2018-08-28T17:49:02.750Z,101377.13
2018-08-28T17:51:42.883Z,101372.03
2018-08-28T17:54:15.209Z,101368.58
2018-08-28T17:56:50.339Z,101380.05
2018-08-28T17:59:21.290Z,101379.89
2018-08-28T18:01:58.306Z,101376.78
2018-08-28T18:04:32.141Z,101378.34
2018-08-28T18:07:03.311Z,101383.53
2018-08-28T18:09:37.204Z,101386.20
2018-08-28T18:12:08.647Z,101388.73
2018-08-28T18:14:41.824Z,101399.03
2018-08-28T18:17:17.582Z,101395.76
2018-08-28T18:19:52.191Z,101402.64
2018-08-28T18:22:28.322Z,101400.15
2018-08-28T18:24:57.756Z,101399.23
2018-08-28T18:27:26.991Z,101396.40
2018-08-28T18:29:55.438Z,101400.76
2018-08-28T18:32:24.522Z,101400.95
2018-08-28T18:34:55.324Z,101401.98
2018-08-28T18:37:24.585Z,101398.06
2018-08-28T18:39:55.411Z,101403.17
2018-08-28T18:42:25.849Z,101407.66
2018-08-28T18:44:55.067Z,101402.92
2018-08-28T18:47:24.289Z,101410.70
2018-08-28T18:49:54.513Z,101413.37
2018-08-28T18:52:23.669Z,101415.39
2018-08-28T18:54:52.429Z,101412.97
2018-08-28T18:57:20.850Z,101413.59
2018-08-28T18:59:49.197Z,101406.47
2018-08-28T19:02:17.536Z,101404.92
2018-08-28T19:04:45.898Z,101409.20
2018-08-28T19:07:15.517Z,101398.20
2018-08-28T19:09:45.029Z,101397.13
2018-08-28T19:12:13.683Z,101401.55
2018-08-28T19:14:42.186Z,101405.50
2018-08-28T19:17:10.561Z,101395.84
2018-08-28T19:19:38.905Z,101393.71
2018-08-28T19:22:07.541Z,101397.62
2018-08-28T19:24:35.916Z,101394.85
2018-08-28T19:27:04.266Z,101397.50
2018-08-28T19:29:32.595Z,101395.31
2018-08-28T19:32:00.973Z,101388.25
2018-08-28T19:34:29.308Z,101388.77
2018-08-28T19:36:57.669Z,101394.80
2018-08-28T19:39:26.077Z,101388.83
2018-08-28T19:41:54.401Z,101391.60
2018-08-28T19:44:23.810Z,101393.26
2018-08-28T19:46:52.523Z,101390.05
2018-08-28T19:49:21.440Z,101390.29
2018-08-28T19:51:50.114Z,101389.01
2018-08-28T19:54:18.451Z,101384.82
2018-08-28T19:56:46.928Z,101389.28
2018-08-28T19:59:16.318Z,101392.15
2018-08-28T20:01:46.053Z,101387.73
2018-08-28T20:04:16.265Z,101385.36
2018-08-28T20:06:45.415Z,101382.86
2018-08-28T20:09:13.828Z,101382.25
2018-08-28T20:11:42.246Z,101388.62
2018-08-28T20:14:10.641Z,101387.91
2018-08-28T20:16:39.081Z,101385.10
2018-08-28T20:19:07.433Z,101388.81
2018-08-28T20:21:35.769Z,101385.36
2018-08-28T20:24:04.319Z,101383.20
2018-08-28T20:26:32.692Z,101381.17
2018-08-28T20:29:01.024Z,101379.37
2018-08-28T20:31:30.322Z,101387.89
2018-08-28T20:33:58.653Z,101391.84
2018-08-28T20:36:27.957Z,101393.37
2018-08-28T20:38:57.190Z,101390.41
2018-08-28T20:41:26.441Z,101390.41
2018-08-28T20:43:54.851Z,101387.29
2018-08-28T20:46:24.141Z,101383.57
2018-08-28T20:48:53.712Z,101380.00
2018-08-28T20:51:24.078Z,101383.94
2018-08-28T20:53:52.540Z,101380.81
2018-08-28T20:56:20.969Z,101382.97
2018-08-28T20:58:49.345Z,101387.05
2018-08-28T21:01:18.760Z,101386.91
2018-08-28T21:03:47.998Z,101386.08
2018-08-28T21:06:17.418Z,101388.70
2018-08-28T21:08:47.217Z,101385.80
2018-08-28T21:11:16.423Z,101382.81
2018-08-28T21:13:46.952Z,101375.27
2018-08-28T21:16:17.245Z,101382.31
2018-08-28T21:18:47.535Z,101387.08
2018-08-28T21:21:16.781Z,101378.56
2018-08-28T21:23:46.113Z,101374.88
2018-08-28T21:26:16.456Z,101379.41
2018-08-28T21:28:46.841Z,101374.88
2018-08-28T21:31:16.133Z,101384.32
2018-08-28T21:33:46.972Z,101381.45
2018-08-28T21:36:16.325Z,101382.17
2018-08-28T21:38:45.763Z,101379.16
2018-08-28T21:41:16.493Z,101383.08
2018-08-28T21:43:46.789Z,101385.92
2018-08-28T21:46:16.486Z,101383.80
2018-08-28T21:48:46.694Z,101390.58
2018-08-28T21:51:16.144Z,101383.98
2018-08-28T21:53:45.517Z,101392.96
2018-08-28T21:56:15.676Z,101387.92
2018-08-28T21:58:45.884Z,101384.95
2018-08-28T22:01:16.705Z,101395.12
2018-08-28T22:03:46.073Z,101393.14
2018-08-28T22:06:22.349Z,101385.00
2018-08-28T22:08:51.677Z,101385.69
2018-08-28T22:11:21.534Z,101386.27
2018-08-28T22:13:51.801Z,101382.08
2018-08-28T22:16:21.516Z,101385.80
2018-08-28T22:18:51.463Z,101389.50
2018-08-28T22:21:19.864Z,101389.97
2018-08-28T22:23:48.282Z,101392.20
2018-08-28T22:26:17.061Z,101389.31
2018-08-28T22:28:46.360Z,101387.36
2018-08-28T22:31:15.417Z,101385.08
2018-08-28T22:33:44.380Z,101388.67
2018-08-28T22:36:13.491Z,101388.48
2018-08-28T22:38:41.871Z,101383.45
2018-08-28T22:41:10.217Z,101384.16
2018-08-28T22:43:38.549Z,101390.72
2018-08-28T22:46:06.902Z,101389.55
2018-08-28T22:48:35.305Z,101381.53
2018-08-28T22:51:03.637Z,101382.84
2018-08-28T22:53:32.337Z,101379.25
2018-08-28T22:56:01.501Z,101382.92
2018-08-28T22:58:30.757Z,101386.99
2018-08-28T23:00:59.195Z,101388.03
2018-08-28T23:03:28.833Z,101384.16
2018-08-28T23:05:58.152Z,101384.51
2018-08-28T23:08:27.373Z,101387.30
2018-08-28T23:10:56.567Z,101379.26
2018-08-28T23:13:25.757Z,101382.80
2018-08-28T23:15:55.037Z,101378.34
2018-08-28T23:18:24.272Z,101378.25
2018-08-28T23:20:54.576Z,101378.02
2018-08-28T23:23:25.500Z,101376.56
2018-08-28T23:25:54.713Z,101379.33
2018-08-28T23:28:24.244Z,101375.77
2018-08-28T23:30:54.664Z,101374.66
2018-08-28T23:33:25.445Z,101374.17
2018-08-28T23:35:54.669Z,101373.41
2018-08-28T23:38:24.253Z,101374.59
2018-08-28T23:40:54.573Z,101371.23
2018-08-28T23:43:23.768Z,101369.55
2018-08-28T23:45:53.649Z,101369.72
2018-08-28T23:48:24.498Z,101368.49
2018-08-28T23:50:54.644Z,101369.87
2018-08-28T23:53:24.492Z,101375.29
2018-08-28T23:55:53.864Z,101373.31
2018-08-28T23:58:24.257Z,101364.56
